sensor_id;sensor_type;location;lat;lon;timestamp;temperature;humidity
12049;DHT22;6085;49.452;8.502;2023-02-26T00:01:41;-1.10;99.90
12049;DHT22;6085;49.452;8.502;2023-02-26T00:05:43;-1.10;99.90
12049;DHT22;6085;49.452;8.502;2023-02-26T00:09:46;-1.20;99.90
12049;DHT22;6085;49.452;8.502;2023-02-26T00:13:48;-1.30;99.90
12049;DHT22;6085;49.452;8.502;2023-02-26T00:17:56;-1.30;99.90
12049;DHT22;6085;49.452;8.502;2023-02-26T00:22:00;-1.40;99.90
12049;DHT22;6085;49.452;8.502;2023-02-26T00:26:04;-1.40;99.90
12049;DHT22;6085;49.452;8.502;2023-02-26T00:30:08;-1.40;99.90
12049;DHT22;6085;49.452;8.502;2023-02-26T00:34:11;-1.40;99.90
12049;DHT22;6085;49.452;8.502;2023-02-26T00:38:16;-1.50;99.90
12049;DHT22;6085;49.452;8.502;2023-02-26T00:42:20;-1.60;99.90
12049;DHT22;6085;49.452;8.502;2023-02-26T00:46:30;-1.70;99.90
12049;DHT22;6085;49.452;8.502;2023-02-26T00:50:40;-1.70;99.90
12049;DHT22;6085;49.452;8.502;2023-02-26T00:54:44;-1.80;99.90
12049;DHT22;6085;49.452;8.502;2023-02-26T00:58:47;-1.70;99.90
12049;DHT22;6085;49.452;8.502;2023-02-26T01:02:52;-1.70;99.90
12049;DHT22;6085;49.452;8.502;2023-02-26T01:06:56;-1.70;99.90
12049;DHT22;6085;49.452;8.502;2023-02-26T01:10:58;-1.80;99.90
12049;DHT22;6085;49.452;8.502;2023-02-26T01:15:03;-1.90;99.90
12049;DHT22;6085;49.452;8.502;2023-02-26T01:19:12;-2.00;99.90
12049;DHT22;6085;49.452;8.502;2023-02-26T01:23:18;-2.20;99.90
12049;DHT22;6085;49.452;8.502;2023-02-26T01:27:26;-2.30;99.90
12049;DHT22;6085;49.452;8.502;2023-02-26T01:31:38;-2.40;99.90
12049;DHT22;6085;49.452;8.502;2023-02-26T01:35:46;-2.50;99.90
12049;DHT22;6085;49.452;8.502;2023-02-26T01:40:02;-2.60;99.90
12049;DHT22;6085;49.452;8.502;2023-02-26T01:44:13;-2.60;99.90
12049;DHT22;6085;49.452;8.502;2023-02-26T01:48:23;-2.50;99.90
12049;DHT22;6085;49.452;8.502;2023-02-26T01:57:06;-2.40;99.90
12049;DHT22;6085;49.452;8.502;2023-02-26T02:01:09;-2.50;99.90
12049;DHT22;6085;49.452;8.502;2023-02-26T02:05:16;-2.60;99.90
12049;DHT22;6085;49.452;8.502;2023-02-26T02:09:20;-2.50;99.90
12049;DHT22;6085;49.452;8.502;2023-02-26T02:13:34;-2.30;99.90
12049;DHT22;6085;49.452;8.502;2023-02-26T02:17:47;-2.20;99.90
12049;DHT22;6085;49.452;8.502;2023-02-26T02:22:10;-2.20;99.90
12049;DHT22;6085;49.452;8.502;2023-02-26T02:31:03;-2.00;99.90
12049;DHT22;6085;49.452;8.502;2023-02-26T02:35:12;-1.90;99.90
12049;DHT22;6085;49.452;8.502;2023-02-26T02:39:18;-1.80;99.90
12049;DHT22;6085;49.452;8.502;2023-02-26T02:43:24;-1.80;99.90
12049;DHT22;6085;49.452;8.502;2023-02-26T02:47:31;-1.70;99.90
12049;DHT22;6085;49.452;8.502;2023-02-26T02:51:37;-1.60;99.90
12049;DHT22;6085;49.452;8.502;2023-02-26T02:55:43;-1.60;99.90
12049;DHT22;6085;49.452;8.502;2023-02-26T02:59:50;-1.60;99.90
12049;DHT22;6085;49.452;8.502;2023-02-26T03:03:59;-1.70;99.90
12049;DHT22;6085;49.452;8.502;2023-02-26T03:08:07;-1.60;99.90
12049;DHT22;6085;49.452;8.502;2023-02-26T03:12:10;-1.60;99.90
12049;DHT22;6085;49.452;8.502;2023-02-26T03:16:20;-1.60;99.90
12049;DHT22;6085;49.452;8.502;2023-02-26T03:20:32;-1.70;99.90
12049;DHT22;6085;49.452;8.502;2023-02-26T03:24:37;-1.80;99.90
12049;DHT22;6085;49.452;8.502;2023-02-26T03:28:46;-2.00;99.90
12049;DHT22;6085;49.452;8.502;2023-02-26T03:32:55;-2.20;99.90
12049;DHT22;6085;49.452;8.502;2023-02-26T03:37:02;-2.30;99.90
12049;DHT22;6085;49.452;8.502;2023-02-26T03:41:08;-2.40;99.90
12049;DHT22;6085;49.452;8.502;2023-02-26T03:45:13;-2.40;99.90
12049;DHT22;6085;49.452;8.502;2023-02-26T03:49:21;-2.40;99.90
12049;DHT22;6085;49.452;8.502;2023-02-26T03:53:29;-2.40;99.90
12049;DHT22;6085;49.452;8.502;2023-02-26T03:57:32;-2.50;99.90
12049;DHT22;6085;49.452;8.502;2023-02-26T04:01:38;-2.60;99.90
12049;DHT22;6085;49.452;8.502;2023-02-26T04:05:45;-2.70;99.90
12049;DHT22;6085;49.452;8.502;2023-02-26T04:09:50;-2.80;99.90
12049;DHT22;6085;49.452;8.502;2023-02-26T04:13:52;-3.00;99.90
12049;DHT22;6085;49.452;8.502;2023-02-26T04:17:54;-2.90;99.90
12049;DHT22;6085;49.452;8.502;2023-02-26T04:21:56;-3.00;99.90
12049;DHT22;6085;49.452;8.502;2023-02-26T04:25:59;-3.00;99.90
12049;DHT22;6085;49.452;8.502;2023-02-26T04:30:01;-3.10;99.90
12049;DHT22;6085;49.452;8.502;2023-02-26T04:34:03;-3.10;99.90
12049;DHT22;6085;49.452;8.502;2023-02-26T04:38:05;-3.00;99.90
12049;DHT22;6085;49.452;8.502;2023-02-26T04:42:08;-3.10;99.90
12049;DHT22;6085;49.452;8.502;2023-02-26T04:46:10;-3.00;99.90
12049;DHT22;6085;49.452;8.502;2023-02-26T04:50:12;-2.90;99.90
12049;DHT22;6085;49.452;8.502;2023-02-26T04:54:14;-2.70;99.90
12049;DHT22;6085;49.452;8.502;2023-02-26T04:58:17;-2.70;99.90
12049;DHT22;6085;49.452;8.502;2023-02-26T05:02:19;-2.80;99.90
12049;DHT22;6085;49.452;8.502;2023-02-26T05:06:21;-2.70;99.90
12049;DHT22;6085;49.452;8.502;2023-02-26T05:10:23;-2.80;99.90
12049;DHT22;6085;49.452;8.502;2023-02-26T05:14:27;-2.80;99.90
12049;DHT22;6085;49.452;8.502;2023-02-26T05:18:29;-2.80;99.90
12049;DHT22;6085;49.452;8.502;2023-02-26T05:22:31;-2.80;99.90
12049;DHT22;6085;49.452;8.502;2023-02-26T05:26:33;-2.80;99.90
12049;DHT22;6085;49.452;8.502;2023-02-26T05:30:37;-2.70;99.90
12049;DHT22;6085;49.452;8.502;2023-02-26T05:34:38;-2.70;99.90
12049;DHT22;6085;49.452;8.502;2023-02-26T05:38:40;-2.70;99.90
12049;DHT22;6085;49.452;8.502;2023-02-26T05:42:42;-2.70;99.90
12049;DHT22;6085;49.452;8.502;2023-02-26T05:46:46;-2.80;99.90
12049;DHT22;6085;49.452;8.502;2023-02-26T05:50:47;-2.80;99.90
12049;DHT22;6085;49.452;8.502;2023-02-26T05:54:49;-3.00;99.90
12049;DHT22;6085;49.452;8.502;2023-02-26T05:58:51;-2.90;99.90
12049;DHT22;6085;49.452;8.502;2023-02-26T06:02:54;-2.90;99.90
12049;DHT22;6085;49.452;8.502;2023-02-26T06:06:56;-3.00;99.90
12049;DHT22;6085;49.452;8.502;2023-02-26T06:10:58;-3.00;99.90
12049;DHT22;6085;49.452;8.502;2023-02-26T06:15:00;-2.90;99.90
12049;DHT22;6085;49.452;8.502;2023-02-26T06:19:03;-3.00;99.90
12049;DHT22;6085;49.452;8.502;2023-02-26T06:23:05;-3.10;99.90
12049;DHT22;6085;49.452;8.502;2023-02-26T06:27:07;-3.00;99.90
12049;DHT22;6085;49.452;8.502;2023-02-26T06:31:09;-3.00;99.90
12049;DHT22;6085;49.452;8.502;2023-02-26T06:35:12;-2.80;99.90
12049;DHT22;6085;49.452;8.502;2023-02-26T06:39:14;-2.60;99.90
12049;DHT22;6085;49.452;8.502;2023-02-26T06:43:15;-2.40;99.90
12049;DHT22;6085;49.452;8.502;2023-02-26T06:47:17;-2.40;99.90
12049;DHT22;6085;49.452;8.502;2023-02-26T06:51:20;-2.30;99.90
12049;DHT22;6085;49.452;8.502;2023-02-26T06:55:22;-2.20;99.90
12049;DHT22;6085;49.452;8.502;2023-02-26T06:59:26;-2.10;99.90
12049;DHT22;6085;49.452;8.502;2023-02-26T07:03:28;-2.00;99.90
12049;DHT22;6085;49.452;8.502;2023-02-26T07:07:32;-1.90;99.90
12049;DHT22;6085;49.452;8.502;2023-02-26T07:11:33;-1.70;99.90
12049;DHT22;6085;49.452;8.502;2023-02-26T07:15:35;-1.70;99.90
12049;DHT22;6085;49.452;8.502;2023-02-26T07:19:37;-1.70;99.90
12049;DHT22;6085;49.452;8.502;2023-02-26T07:23:41;-1.60;99.90
12049;DHT22;6085;49.452;8.502;2023-02-26T07:27:42;-1.60;99.90
12049;DHT22;6085;49.452;8.502;2023-02-26T07:31:44;-1.30;99.90
12049;DHT22;6085;49.452;8.502;2023-02-26T07:35:46;-0.70;99.90
12049;DHT22;6085;49.452;8.502;2023-02-26T07:39:50;0.00;99.90
12049;DHT22;6085;49.452;8.502;2023-02-26T07:43:52;0.50;99.90
12049;DHT22;6085;49.452;8.502;2023-02-26T07:47:54;0.40;99.90
12049;DHT22;6085;49.452;8.502;2023-02-26T07:51:56;0.30;99.90
12049;DHT22;6085;49.452;8.502;2023-02-26T07:55:59;0.30;99.90
12049;DHT22;6085;49.452;8.502;2023-02-26T08:00:01;0.50;99.90
12049;DHT22;6085;49.452;8.502;2023-02-26T08:04:04;0.60;99.90
12049;DHT22;6085;49.452;8.502;2023-02-26T08:08:06;0.70;99.90
12049;DHT22;6085;49.452;8.502;2023-02-26T08:12:09;0.70;99.90
12049;DHT22;6085;49.452;8.502;2023-02-26T08:16:11;0.60;99.90
12049;DHT22;6085;49.452;8.502;2023-02-26T08:20:13;0.60;99.90
12049;DHT22;6085;49.452;8.502;2023-02-26T08:24:15;0.70;99.90
12049;DHT22;6085;49.452;8.502;2023-02-26T08:28:19;1.00;99.90
12049;DHT22;6085;49.452;8.502;2023-02-26T08:32:20;1.60;99.90
12049;DHT22;6085;49.452;8.502;2023-02-26T08:36:23;2.20;99.90
12049;DHT22;6085;49.452;8.502;2023-02-26T08:40:26;2.30;99.90
12049;DHT22;6085;49.452;8.502;2023-02-26T08:44:31;2.50;99.90
12049;DHT22;6085;49.452;8.502;2023-02-26T08:48:33;2.50;99.90
12049;DHT22;6085;49.452;8.502;2023-02-26T08:52:35;2.40;99.90
12049;DHT22;6085;49.452;8.502;2023-02-26T08:56:38;2.50;99.90
12049;DHT22;6085;49.452;8.502;2023-02-26T09:00:41;3.00;99.90
12049;DHT22;6085;49.452;8.502;2023-02-26T09:04:43;4.00;99.90
12049;DHT22;6085;49.452;8.502;2023-02-26T09:08:45;3.90;99.90
12049;DHT22;6085;49.452;8.502;2023-02-26T09:12:47;3.00;99.90
12049;DHT22;6085;49.452;8.502;2023-02-26T09:16:51;2.60;99.90
12049;DHT22;6085;49.452;8.502;2023-02-26T09:20:53;2.40;99.90
12049;DHT22;6085;49.452;8.502;2023-02-26T09:24:55;3.00;99.90
12049;DHT22;6085;49.452;8.502;2023-02-26T09:28:57;3.10;99.90
12049;DHT22;6085;49.452;8.502;2023-02-26T09:33:01;2.90;99.90
12049;DHT22;6085;49.452;8.502;2023-02-26T09:37:03;3.40;99.90
12049;DHT22;6085;49.452;8.502;2023-02-26T09:41:08;3.70;99.90
12049;DHT22;6085;49.452;8.502;2023-02-26T09:45:21;4.00;99.90
12049;DHT22;6085;49.452;8.502;2023-02-26T09:49:46;4.20;99.90
12049;DHT22;6085;49.452;8.502;2023-02-26T09:53:48;3.90;99.90
12049;DHT22;6085;49.452;8.502;2023-02-26T09:57:55;3.80;99.90
12049;DHT22;6085;49.452;8.502;2023-02-26T10:02:03;4.80;99.90
12049;DHT22;6085;49.452;8.502;2023-02-26T10:06:16;5.70;99.90
12049;DHT22;6085;49.452;8.502;2023-02-26T10:10:28;5.90;99.90
12049;DHT22;6085;49.452;8.502;2023-02-26T10:14:36;6.60;99.90
12049;DHT22;6085;49.452;8.502;2023-02-26T10:18:43;6.70;99.90
12049;DHT22;6085;49.452;8.502;2023-02-26T10:22:57;7.00;99.90
12049;DHT22;6085;49.452;8.502;2023-02-26T10:27:04;7.20;99.90
12049;DHT22;6085;49.452;8.502;2023-02-26T10:31:13;7.40;99.90
12049;DHT22;6085;49.452;8.502;2023-02-26T10:35:19;6.50;99.90
12049;DHT22;6085;49.452;8.502;2023-02-26T10:39:31;6.10;99.90
12049;DHT22;6085;49.452;8.502;2023-02-26T10:43:36;5.60;99.90
12049;DHT22;6085;49.452;8.502;2023-02-26T10:47:44;4.60;99.90
12049;DHT22;6085;49.452;8.502;2023-02-26T10:51:48;4.00;99.90
12049;DHT22;6085;49.452;8.502;2023-02-26T10:55:58;4.50;99.90
12049;DHT22;6085;49.452;8.502;2023-02-26T11:00:05;4.60;99.90
12049;DHT22;6085;49.452;8.502;2023-02-26T11:04:12;4.10;99.90
12049;DHT22;6085;49.452;8.502;2023-02-26T11:08:22;4.70;99.90
12049;DHT22;6085;49.452;8.502;2023-02-26T11:12:25;5.30;99.90
12049;DHT22;6085;49.452;8.502;2023-02-26T11:16:28;5.70;99.90
12049;DHT22;6085;49.452;8.502;2023-02-26T11:20:34;4.80;99.90
12049;DHT22;6085;49.452;8.502;2023-02-26T11:24:40;4.50;99.90
12049;DHT22;6085;49.452;8.502;2023-02-26T11:28:46;4.30;99.90
12049;DHT22;6085;49.452;8.502;2023-02-26T11:32:50;4.40;99.90
12049;DHT22;6085;49.452;8.502;2023-02-26T11:36:54;4.40;99.90
12049;DHT22;6085;49.452;8.502;2023-02-26T11:40:58;4.20;99.90
12049;DHT22;6085;49.452;8.502;2023-02-26T11:45:04;4.30;99.90
12049;DHT22;6085;49.452;8.502;2023-02-26T11:49:09;4.40;99.90
12049;DHT22;6085;49.452;8.502;2023-02-26T11:53:17;4.60;99.90
12049;DHT22;6085;49.452;8.502;2023-02-26T11:57:24;4.80;99.90
12049;DHT22;6085;49.452;8.502;2023-02-26T12:01:28;4.90;99.90
12049;DHT22;6085;49.452;8.502;2023-02-26T12:05:31;5.10;99.90
12049;DHT22;6085;49.452;8.502;2023-02-26T12:09:32;5.20;99.90
12049;DHT22;6085;49.452;8.502;2023-02-26T12:13:39;5.60;99.90
12049;DHT22;6085;49.452;8.502;2023-02-26T12:18:01;6.40;99.90
12049;DHT22;6085;49.452;8.502;2023-02-26T12:22:34;6.30;99.90
12049;DHT22;6085;49.452;8.502;2023-02-26T12:26:42;5.30;99.90
12049;DHT22;6085;49.452;8.502;2023-02-26T12:30:59;4.60;99.90
12049;DHT22;6085;49.452;8.502;2023-02-26T12:35:23;4.50;99.90
12049;DHT22;6085;49.452;8.502;2023-02-26T12:39:45;4.50;99.90
12049;DHT22;6085;49.452;8.502;2023-02-26T12:43:51;4.50;99.90
12049;DHT22;6085;49.452;8.502;2023-02-26T12:48:08;4.40;99.90
12049;DHT22;6085;49.452;8.502;2023-02-26T12:57:07;5.70;99.90
12049;DHT22;6085;49.452;8.502;2023-02-26T13:01:34;6.90;99.90
12049;DHT22;6085;49.452;8.502;2023-02-26T13:06:01;7.20;99.90
12049;DHT22;6085;49.452;8.502;2023-02-26T13:10:14;7.40;99.90
12049;DHT22;6085;49.452;8.502;2023-02-26T13:14:26;7.50;99.90
12049;DHT22;6085;49.452;8.502;2023-02-26T13:18:38;6.70;99.90
12049;DHT22;6085;49.452;8.502;2023-02-26T13:22:46;6.20;99.90
12049;DHT22;6085;49.452;8.502;2023-02-26T13:26:51;5.70;99.90
12049;DHT22;6085;49.452;8.502;2023-02-26T13:30:56;5.50;99.90
12049;DHT22;6085;49.452;8.502;2023-02-26T13:35:03;5.80;99.90
12049;DHT22;6085;49.452;8.502;2023-02-26T13:39:31;6.20;99.90
12049;DHT22;6085;49.452;8.502;2023-02-26T13:44:20;6.20;99.90
12049;DHT22;6085;49.452;8.502;2023-02-26T13:48:32;5.90;99.90
12049;DHT22;6085;49.452;8.502;2023-02-26T13:52:49;5.50;99.90
12049;DHT22;6085;49.452;8.502;2023-02-26T13:56:53;5.20;99.90
12049;DHT22;6085;49.452;8.502;2023-02-26T14:01:08;5.00;99.90
12049;DHT22;6085;49.452;8.502;2023-02-26T14:10:01;4.90;99.90
12049;DHT22;6085;49.452;8.502;2023-02-26T14:14:22;4.60;99.90
12049;DHT22;6085;49.452;8.502;2023-02-26T14:18:30;4.40;99.90
12049;DHT22;6085;49.452;8.502;2023-02-26T14:22:37;4.60;99.90
12049;DHT22;6085;49.452;8.502;2023-02-26T14:26:44;4.80;99.90
12049;DHT22;6085;49.452;8.502;2023-02-26T14:30:50;4.80;99.90
12049;DHT22;6085;49.452;8.502;2023-02-26T14:34:58;5.70;99.90
12049;DHT22;6085;49.452;8.502;2023-02-26T14:39:04;7.20;99.90
12049;DHT22;6085;49.452;8.502;2023-02-26T14:43:11;7.60;99.60
12049;DHT22;6085;49.452;8.502;2023-02-26T14:47:17;7.00;99.30
12049;DHT22;6085;49.452;8.502;2023-02-26T14:51:28;7.10;99.50
12049;DHT22;6085;49.452;8.502;2023-02-26T14:55:46;7.80;98.60
12049;DHT22;6085;49.452;8.502;2023-02-26T15:00:05;8.00;97.80
12049;DHT22;6085;49.452;8.502;2023-02-26T15:04:34;7.20;99.10
12049;DHT22;6085;49.452;8.502;2023-02-26T15:08:50;6.30;99.90
12049;DHT22;6085;49.452;8.502;2023-02-26T15:13:15;5.50;99.90
12049;DHT22;6085;49.452;8.502;2023-02-26T15:17:37;5.00;99.90
12049;DHT22;6085;49.452;8.502;2023-02-26T15:21:49;4.60;99.90
12049;DHT22;6085;49.452;8.502;2023-02-26T15:25:58;4.40;99.90
12049;DHT22;6085;49.452;8.502;2023-02-26T15:30:00;4.20;99.90
12049;DHT22;6085;49.452;8.502;2023-02-26T15:34:02;4.20;99.90
12049;DHT22;6085;49.452;8.502;2023-02-26T15:38:04;4.50;99.90
12049;DHT22;6085;49.452;8.502;2023-02-26T15:42:09;4.80;99.90
12049;DHT22;6085;49.452;8.502;2023-02-26T15:46:11;4.80;99.90
12049;DHT22;6085;49.452;8.502;2023-02-26T15:50:15;4.70;99.90
12049;DHT22;6085;49.452;8.502;2023-02-26T15:54:21;4.50;99.90
12049;DHT22;6085;49.452;8.502;2023-02-26T15:58:32;4.30;99.90
12049;DHT22;6085;49.452;8.502;2023-02-26T16:02:35;4.10;99.90
12049;DHT22;6085;49.452;8.502;2023-02-26T16:06:40;3.90;99.90
12049;DHT22;6085;49.452;8.502;2023-02-26T16:10:42;3.70;99.90
12049;DHT22;6085;49.452;8.502;2023-02-26T16:14:49;3.80;99.90
12049;DHT22;6085;49.452;8.502;2023-02-26T16:18:52;3.70;99.90
12049;DHT22;6085;49.452;8.502;2023-02-26T16:22:56;3.60;99.90
12049;DHT22;6085;49.452;8.502;2023-02-26T16:27:03;3.30;99.90
12049;DHT22;6085;49.452;8.502;2023-02-26T16:31:15;3.10;99.90
12049;DHT22;6085;49.452;8.502;2023-02-26T16:35:20;2.90;99.90
12049;DHT22;6085;49.452;8.502;2023-02-26T16:39:26;2.80;99.90
12049;DHT22;6085;49.452;8.502;2023-02-26T16:43:49;2.70;99.90
12049;DHT22;6085;49.452;8.502;2023-02-26T16:47:55;2.70;99.90
12049;DHT22;6085;49.452;8.502;2023-02-26T16:51:58;2.80;99.90
12049;DHT22;6085;49.452;8.502;2023-02-26T16:56:01;2.90;99.90
12049;DHT22;6085;49.452;8.502;2023-02-26T17:00:06;3.00;99.90
12049;DHT22;6085;49.452;8.502;2023-02-26T17:04:14;2.90;99.90
12049;DHT22;6085;49.452;8.502;2023-02-26T17:08:19;2.90;99.90
12049;DHT22;6085;49.452;8.502;2023-02-26T17:12:22;2.80;99.90
12049;DHT22;6085;49.452;8.502;2023-02-26T17:16:25;2.80;99.90
12049;DHT22;6085;49.452;8.502;2023-02-26T17:20:29;2.90;99.90
12049;DHT22;6085;49.452;8.502;2023-02-26T17:24:33;2.90;99.90
12049;DHT22;6085;49.452;8.502;2023-02-26T17:28:39;2.80;99.90
12049;DHT22;6085;49.452;8.502;2023-02-26T17:32:42;2.80;99.90
12049;DHT22;6085;49.452;8.502;2023-02-26T17:36:45;2.80;99.90
12049;DHT22;6085;49.452;8.502;2023-02-26T17:40:47;2.60;99.90
12049;DHT22;6085;49.452;8.502;2023-02-26T17:44:50;2.40;99.90
12049;DHT22;6085;49.452;8.502;2023-02-26T17:48:54;2.30;99.90
12049;DHT22;6085;49.452;8.502;2023-02-26T17:52:58;2.20;99.90
12049;DHT22;6085;49.452;8.502;2023-02-26T17:56:59;2.20;99.90
12049;DHT22;6085;49.452;8.502;2023-02-26T18:01:01;2.30;99.90
12049;DHT22;6085;49.452;8.502;2023-02-26T18:05:04;2.20;99.90
12049;DHT22;6085;49.452;8.502;2023-02-26T18:09:10;2.20;99.90
12049;DHT22;6085;49.452;8.502;2023-02-26T18:13:12;2.30;99.90
12049;DHT22;6085;49.452;8.502;2023-02-26T18:17:17;2.30;99.90
12049;DHT22;6085;49.452;8.502;2023-02-26T18:21:19;2.30;99.90
12049;DHT22;6085;49.452;8.502;2023-02-26T18:25:23;2.20;99.90
12049;DHT22;6085;49.452;8.502;2023-02-26T18:29:25;2.10;99.90
12049;DHT22;6085;49.452;8.502;2023-02-26T18:33:27;2.10;99.90
12049;DHT22;6085;49.452;8.502;2023-02-26T18:37:29;2.10;99.90
12049;DHT22;6085;49.452;8.502;2023-02-26T18:41:34;2.20;99.90
12049;DHT22;6085;49.452;8.502;2023-02-26T18:45:36;2.20;99.90
12049;DHT22;6085;49.452;8.502;2023-02-26T18:49:38;2.10;99.90
12049;DHT22;6085;49.452;8.502;2023-02-26T18:53:40;2.20;99.90
12049;DHT22;6085;49.452;8.502;2023-02-26T18:57:43;2.10;99.90
12049;DHT22;6085;49.452;8.502;2023-02-26T19:01:45;2.00;99.90
12049;DHT22;6085;49.452;8.502;2023-02-26T19:05:55;1.70;99.90
12049;DHT22;6085;49.452;8.502;2023-02-26T19:09:57;1.50;99.90
12049;DHT22;6085;49.452;8.502;2023-02-26T19:14:03;1.40;99.90
12049;DHT22;6085;49.452;8.502;2023-02-26T19:18:05;1.30;99.90
12049;DHT22;6085;49.452;8.502;2023-02-26T19:22:07;1.20;99.90
12049;DHT22;6085;49.452;8.502;2023-02-26T19:26:09;1.00;99.90
12049;DHT22;6085;49.452;8.502;2023-02-26T19:30:13;0.80;99.90
12049;DHT22;6085;49.452;8.502;2023-02-26T19:34:15;0.80;99.90
12049;DHT22;6085;49.452;8.502;2023-02-26T19:38:17;0.80;99.90
12049;DHT22;6085;49.452;8.502;2023-02-26T19:42:19;0.80;99.90
12049;DHT22;6085;49.452;8.502;2023-02-26T19:46:22;0.80;99.90
12049;DHT22;6085;49.452;8.502;2023-02-26T19:50:24;0.70;99.90
12049;DHT22;6085;49.452;8.502;2023-02-26T19:54:27;0.70;99.90
12049;DHT22;6085;49.452;8.502;2023-02-26T19:58:30;0.70;99.90
12049;DHT22;6085;49.452;8.502;2023-02-26T20:02:33;0.70;99.90
12049;DHT22;6085;49.452;8.502;2023-02-26T20:06:35;0.70;99.90
12049;DHT22;6085;49.452;8.502;2023-02-26T20:10:37;0.60;99.90
12049;DHT22;6085;49.452;8.502;2023-02-26T20:14:40;0.60;99.90
12049;DHT22;6085;49.452;8.502;2023-02-26T20:18:43;0.60;99.90
12049;DHT22;6085;49.452;8.502;2023-02-26T20:22:45;0.50;99.90
12049;DHT22;6085;49.452;8.502;2023-02-26T20:26:47;0.40;99.90
12049;DHT22;6085;49.452;8.502;2023-02-26T20:30:49;0.30;99.90
12049;DHT22;6085;49.452;8.502;2023-02-26T20:34:52;0.20;99.90
12049;DHT22;6085;49.452;8.502;2023-02-26T20:38:54;0.00;99.90
12049;DHT22;6085;49.452;8.502;2023-02-26T20:42:56;-0.10;99.90
12049;DHT22;6085;49.452;8.502;2023-02-26T20:46:58;0.00;99.90
12049;DHT22;6085;49.452;8.502;2023-02-26T20:51:03;-0.10;99.90
12049;DHT22;6085;49.452;8.502;2023-02-26T20:55:06;-0.10;99.90
12049;DHT22;6085;49.452;8.502;2023-02-26T20:59:08;-0.10;99.90
12049;DHT22;6085;49.452;8.502;2023-02-26T21:03:10;-0.10;99.90
12049;DHT22;6085;49.452;8.502;2023-02-26T21:07:13;-0.10;99.90
12049;DHT22;6085;49.452;8.502;2023-02-26T21:11:21;-0.20;99.90
12049;DHT22;6085;49.452;8.502;2023-02-26T21:15:23;-0.10;99.90
12049;DHT22;6085;49.452;8.502;2023-02-26T21:19:24;-0.10;99.90
12049;DHT22;6085;49.452;8.502;2023-02-26T21:23:28;-0.20;99.90
12049;DHT22;6085;49.452;8.502;2023-02-26T21:27:29;-0.20;99.90
12049;DHT22;6085;49.452;8.502;2023-02-26T21:31:31;-0.30;99.90
12049;DHT22;6085;49.452;8.502;2023-02-26T21:35:33;-0.30;99.90
12049;DHT22;6085;49.452;8.502;2023-02-26T21:39:37;-0.30;99.90
12049;DHT22;6085;49.452;8.502;2023-02-26T21:43:39;-0.30;99.90
12049;DHT22;6085;49.452;8.502;2023-02-26T21:47:41;-0.30;99.90
12049;DHT22;6085;49.452;8.502;2023-02-26T21:51:43;-0.30;99.90
12049;DHT22;6085;49.452;8.502;2023-02-26T21:55:46;-0.30;99.90
12049;DHT22;6085;49.452;8.502;2023-02-26T21:59:48;-0.50;99.90
12049;DHT22;6085;49.452;8.502;2023-02-26T22:03:50;-0.50;99.90
12049;DHT22;6085;49.452;8.502;2023-02-26T22:07:52;-0.60;99.90
12049;DHT22;6085;49.452;8.502;2023-02-26T22:11:55;-0.60;99.90
12049;DHT22;6085;49.452;8.502;2023-02-26T22:15:57;-0.70;99.90
12049;DHT22;6085;49.452;8.502;2023-02-26T22:19:59;-0.70;99.90
12049;DHT22;6085;49.452;8.502;2023-02-26T22:24:01;-0.70;99.90
12049;DHT22;6085;49.452;8.502;2023-02-26T22:28:04;-0.80;99.90
12049;DHT22;6085;49.452;8.502;2023-02-26T22:32:06;-0.90;99.90
12049;DHT22;6085;49.452;8.502;2023-02-26T22:36:09;-1.00;99.90
12049;DHT22;6085;49.452;8.502;2023-02-26T22:40:12;-1.20;99.90
12049;DHT22;6085;49.452;8.502;2023-02-26T22:44:15;-1.40;99.90
12049;DHT22;6085;49.452;8.502;2023-02-26T22:48:17;-1.40;99.90
12049;DHT22;6085;49.452;8.502;2023-02-26T22:52:20;-1.40;99.90
12049;DHT22;6085;49.452;8.502;2023-02-26T22:56:22;-1.50;99.90
12049;DHT22;6085;49.452;8.502;2023-02-26T23:00:25;-1.60;99.90
12049;DHT22;6085;49.452;8.502;2023-02-26T23:04:28;-1.60;99.90
12049;DHT22;6085;49.452;8.502;2023-02-26T23:08:30;-1.50;99.90
12049;DHT22;6085;49.452;8.502;2023-02-26T23:12:32;-1.50;99.90
12049;DHT22;6085;49.452;8.502;2023-02-26T23:16:35;-1.40;99.90
12049;DHT22;6085;49.452;8.502;2023-02-26T23:20:37;-1.40;99.90
12049;DHT22;6085;49.452;8.502;2023-02-26T23:24:39;-1.40;99.90
12049;DHT22;6085;49.452;8.502;2023-02-26T23:28:41;-1.40;99.90
12049;DHT22;6085;49.452;8.502;2023-02-26T23:32:44;-1.30;99.90
12049;DHT22;6085;49.452;8.502;2023-02-26T23:36:46;-1.30;99.90
12049;DHT22;6085;49.452;8.502;2023-02-26T23:40:47;-1.30;99.90
12049;DHT22;6085;49.452;8.502;2023-02-26T23:44:49;-1.40;99.90
12049;DHT22;6085;49.452;8.502;2023-02-26T23:48:53;-1.50;99.90
12049;DHT22;6085;49.452;8.502;2023-02-26T23:52:56;-1.50;99.90
12049;DHT22;6085;49.452;8.502;2023-02-26T23:56:58;-1.40;99.90
